This is the latest recevied weather packets stored in our database for station/object EA5SW-14. If no packets are shown the sender has not sent any weather packets the latest 10 day(s).
| Time | Temp. | Humidity | Pressure | Rain* | Wind** | Luminosity | Snow |
|---|---|---|---|---|---|---|---|
| 1777903346 | 21.11° C | 52% | 1005.9 hPa | 0 mm | - | - | - |
| 1777897938 | 20.56° C | 61% | 1006.5 hPa | 0 mm | - | - | - |
| 1777897394 | 20° C | 63% | 1006.7 hPa | 0 mm | - | - | - |
| 1777893809 | 19.44° C | 68% | 1007.3 hPa | 0 mm | - | - | - |
| 1777888391 | 16.67° C | 77% | 1007.8 hPa | 0 mm | - | - | - |
| 1777881140 | 12.78° C | 97% | 1008 hPa | 0 mm | - | - | - |
| 1777879388 | 13.33° C | 98% | 1007.8 hPa | 0 mm | - | - | - |
| 1777876970 | 13.33° C | 98% | 1007.5 hPa | 0 mm | - | - | - |
| 1777875782 | 12.78° C | 98% | 1007.4 hPa | 0 mm | - | - | - |
| 1777874573 | 12.78° C | 98% | 1007.3 hPa | 0.25 mm | - | - | - |
| 1777872740 | 12.78° C | 98% | 1007.3 hPa | 0.25 mm | - | - | - |
| 1777872136 | 12.78° C | 98% | 1007.2 hPa | 0.25 mm | - | - | - |
| 1777868591 | 12.78° C | 97% | 1007 hPa | 0 mm | - | - | - |
| 1777860172 | 12.78° C | 97% | 1007.9 hPa | 0 mm | - | - | - |
| 1777856547 | 12.78° C | 97% | 1007.7 hPa | 0 mm | - | - | - |
| 1777848148 | 12.22° C | 95% | 1008.5 hPa | 0 mm | - | - | - |
| 1777847544 | 12.78° C | 95% | 1008.6 hPa | 0 mm | - | - | - |
| 1777846940 | 12.78° C | 95% | 1008.7 hPa | 0 mm | - | - | - |
| 1777843374 | 12.78° C | 94% | 1008.7 hPa | 0 mm | - | - | - |
| 1777836787 | 13.89° C | 93% | 1007.5 hPa | 0 mm | - | - | - |
| 1777834974 | 14.44° C | 92% | 1007.3 hPa | 0 mm | - | - | - |
| 1777833786 | 15° C | 90% | 1007.2 hPa | 0 mm | - | - | - |
| 1777831369 | 16.67° C | 87% | 1006.9 hPa | 0 mm | - | - | - |
| 1777829013 | 17.22° C | 86% | 1006.7 hPa | 0 mm | - | - | - |
| 1777823574 | 15° C | 90% | 1007 hPa | 4.32 mm | - | - | - |
* Rain latest hour (hover to see other rain measurements)
** Current wind speed in m/s (hover to see current wind gust speed)